createdAt,value
2017-10-16T00:00:13.918Z,15.60
2017-10-16T00:02:41.439Z,15.60
2017-10-16T00:05:09.736Z,15.50
2017-10-16T00:07:37.254Z,15.50
2017-10-16T00:10:04.802Z,15.50
2017-10-16T00:12:32.327Z,15.60
2017-10-16T00:14:59.851Z,15.50
2017-10-16T00:17:28.141Z,15.30
2017-10-16T00:19:56.409Z,15.20
2017-10-16T00:22:24.696Z,15.10
2017-10-16T00:24:52.276Z,15.00
2017-10-16T00:27:19.826Z,14.90
2017-10-16T00:29:47.340Z,14.70
2017-10-16T00:32:16.377Z,14.60
2017-10-16T00:34:43.898Z,14.60
2017-10-16T00:37:11.422Z,14.50
2017-10-16T00:39:38.963Z,14.40
2017-10-16T00:42:06.474Z,14.40
2017-10-16T00:44:34.018Z,14.40
2017-10-16T00:47:02.303Z,14.60
2017-10-16T00:49:29.829Z,14.50
2017-10-16T00:51:57.346Z,14.50
2017-10-16T00:54:25.658Z,14.30
2017-10-16T00:56:53.178Z,14.30
2017-10-16T00:59:21.444Z,14.30
2017-10-16T01:01:49.746Z,14.20
2017-10-16T01:04:17.269Z,14.20
2017-10-16T01:06:46.298Z,14.40
2017-10-16T01:09:13.804Z,14.40
2017-10-16T01:11:41.329Z,14.50
2017-10-16T01:14:08.828Z,14.60
2017-10-16T01:16:37.160Z,14.90
2017-10-16T01:19:04.660Z,14.90
2017-10-16T01:21:32.179Z,15.10
2017-10-16T01:23:59.718Z,15.40
2017-10-16T01:26:27.247Z,15.40
2017-10-16T01:28:54.772Z,15.40
2017-10-16T01:31:22.281Z,15.40
2017-10-16T01:33:50.572Z,15.40
2017-10-16T01:36:18.099Z,15.40
2017-10-16T01:38:46.375Z,15.60
2017-10-16T01:41:14.674Z,15.40
2017-10-16T01:43:42.958Z,15.40
2017-10-16T01:46:10.489Z,15.40
2017-10-16T01:48:38.817Z,15.30
2017-10-16T01:51:06.339Z,15.30
2017-10-16T01:53:34.616Z,15.10
2017-10-16T01:56:02.888Z,15.00
2017-10-16T01:58:31.202Z,14.90
2017-10-16T02:00:58.723Z,14.90
2017-10-16T02:03:27.012Z,15.00
2017-10-16T02:05:54.526Z,15.00
2017-10-16T02:08:22.061Z,15.00
2017-10-16T02:10:49.579Z,15.00
2017-10-16T02:13:17.884Z,15.50
2017-10-16T02:15:45.403Z,15.40
2017-10-16T02:18:13.686Z,15.30
2017-10-16T02:20:41.233Z,15.30
2017-10-16T02:23:08.750Z,15.10
2017-10-16T02:25:36.292Z,15.10
2017-10-16T02:28:03.825Z,15.20
2017-10-16T02:30:32.121Z,15.00
2017-10-16T02:32:59.694Z,15.00
2017-10-16T02:35:27.209Z,15.10
2017-10-16T02:37:55.520Z,15.10
2017-10-16T02:40:23.033Z,15.00
2017-10-16T02:42:50.557Z,15.10
2017-10-16T02:45:18.090Z,15.00
2017-10-16T02:47:45.774Z,15.00
2017-10-16T02:50:13.277Z,15.10
2017-10-16T02:52:41.556Z,15.00
2017-10-16T02:55:09.844Z,15.20
2017-10-16T02:57:38.115Z,15.20
2017-10-16T03:00:06.426Z,15.20
2017-10-16T03:02:33.947Z,15.20
2017-10-16T03:05:02.238Z,14.90
2017-10-16T03:07:29.758Z,14.90
2017-10-16T03:09:57.303Z,15.00
2017-10-16T03:12:24.824Z,15.20
2017-10-16T03:14:52.345Z,15.10
2017-10-16T03:17:21.397Z,15.30
2017-10-16T03:19:48.900Z,15.30
2017-10-16T03:22:16.438Z,15.50
2017-10-16T03:24:43.966Z,15.40
2017-10-16T03:27:11.500Z,15.40
2017-10-16T03:29:39.081Z,15.20
2017-10-16T03:32:06.593Z,15.20
2017-10-16T03:34:34.903Z,15.40
2017-10-16T03:37:02.412Z,15.30
2017-10-16T03:39:29.950Z,15.30
2017-10-16T03:41:57.452Z,15.30
2017-10-16T03:44:25.740Z,15.20
2017-10-16T03:46:54.022Z,15.30
2017-10-16T03:49:21.557Z,15.30
2017-10-16T03:51:49.846Z,15.40
2017-10-16T03:54:18.121Z,15.40
2017-10-16T03:56:46.430Z,15.50
2017-10-16T03:59:13.960Z,15.50
2017-10-16T04:01:42.253Z,15.50
2017-10-16T04:04:09.779Z,15.50
2017-10-16T04:06:37.315Z,15.50
2017-10-16T04:09:04.839Z,15.50
2017-10-16T04:11:32.358Z,15.50
2017-10-16T04:14:00.773Z,15.80
2017-10-16T04:16:28.342Z,15.70
2017-10-16T04:18:55.883Z,15.60
2017-10-16T04:21:23.413Z,15.40
2017-10-16T04:23:51.700Z,15.10
2017-10-16T04:26:19.991Z,14.90
2017-10-16T04:28:47.512Z,14.80
2017-10-16T04:31:15.034Z,14.70
2017-10-16T04:33:42.557Z,14.60
2017-10-16T04:36:10.828Z,15.00
2017-10-16T04:38:39.134Z,15.10
2017-10-16T04:41:06.653Z,15.10
2017-10-16T04:43:34.940Z,15.20
2017-10-16T04:46:03.217Z,15.30
2017-10-16T04:48:31.532Z,15.40
2017-10-16T04:50:59.051Z,15.30
2017-10-16T04:53:26.564Z,15.40
2017-10-16T04:55:54.102Z,15.40
2017-10-16T04:58:21.791Z,15.30
2017-10-16T05:00:49.418Z,15.30
2017-10-16T05:03:16.987Z,15.20
2017-10-16T05:05:44.534Z,15.10
2017-10-16T05:08:12.036Z,15.00
2017-10-16T05:10:40.338Z,15.10
2017-10-16T05:13:08.623Z,15.20
2017-10-16T05:15:36.930Z,15.30
2017-10-16T05:18:04.436Z,15.30
2017-10-16T05:20:31.967Z,15.50
2017-10-16T05:22:59.472Z,15.50
2017-10-16T05:25:27.780Z,15.60
2017-10-16T05:27:55.337Z,15.60
2017-10-16T05:30:22.841Z,15.50
2017-10-16T05:32:50.359Z,15.60
2017-10-16T05:35:17.882Z,15.60
2017-10-16T05:37:46.183Z,15.60
2017-10-16T05:40:13.683Z,15.60
2017-10-16T05:42:41.994Z,15.50
2017-10-16T05:45:09.519Z,15.50
2017-10-16T05:47:37.792Z,15.50
2017-10-16T05:50:06.081Z,15.50
2017-10-16T05:52:35.124Z,15.40
2017-10-16T05:55:02.654Z,15.40
2017-10-16T05:57:30.943Z,15.50
2017-10-16T05:59:58.467Z,15.50
2017-10-16T06:02:25.986Z,15.40
2017-10-16T06:04:53.529Z,15.60
2017-10-16T06:07:21.033Z,15.60
2017-10-16T06:09:49.320Z,15.80
2017-10-16T06:12:16.823Z,15.80
2017-10-16T06:14:44.336Z,15.80
2017-10-16T06:17:12.645Z,15.90
2017-10-16T06:19:40.222Z,15.90
2017-10-16T06:22:07.768Z,15.90
2017-10-16T06:24:35.288Z,16.00
2017-10-16T06:27:03.107Z,16.00
2017-10-16T06:29:30.616Z,16.00
2017-10-16T06:31:58.154Z,16.00
2017-10-16T06:34:25.661Z,16.00
2017-10-16T06:36:53.210Z,16.10
2017-10-16T06:39:21.495Z,16.40
2017-10-16T06:41:49.763Z,16.50
2017-10-16T06:44:18.067Z,16.60
2017-10-16T06:46:45.591Z,16.60
2017-10-16T06:49:13.889Z,17.10
2017-10-16T06:51:41.406Z,17.10
2017-10-16T06:54:08.936Z,17.40
2017-10-16T06:56:36.452Z,17.60
2017-10-16T06:59:04.054Z,17.70
2017-10-16T07:01:31.575Z,17.90
2017-10-16T07:03:59.095Z,17.90
2017-10-16T07:06:26.616Z,18.10
2017-10-16T07:08:54.138Z,18.30
2017-10-16T07:11:22.443Z,18.60
2017-10-16T07:13:49.953Z,18.60
2017-10-16T07:16:17.499Z,18.80
2017-10-16T07:18:46.526Z,19.20
2017-10-16T07:21:14.820Z,19.40
2017-10-16T07:23:42.328Z,19.40
2017-10-16T07:26:10.604Z,19.90
2017-10-16T07:28:38.145Z,19.90
2017-10-16T07:31:05.675Z,20.20
2017-10-16T07:33:33.205Z,20.90
2017-10-16T07:36:01.495Z,21.90
2017-10-16T07:38:29.034Z,21.90
2017-10-16T07:40:57.308Z,22.40
2017-10-16T07:43:25.612Z,22.80
2017-10-16T07:45:53.127Z,22.80
2017-10-16T07:48:20.805Z,23.50
2017-10-16T07:50:49.320Z,24.30
2017-10-16T07:53:16.829Z,24.30
2017-10-16T07:55:44.360Z,24.40
2017-10-16T07:58:11.903Z,24.50
2017-10-16T08:00:39.438Z,24.80
2017-10-16T08:03:07.703Z,25.50
2017-10-16T08:05:35.994Z,25.80
2017-10-16T08:08:03.535Z,25.70
2017-10-16T08:10:31.802Z,26.60
2017-10-16T08:12:59.339Z,26.60
2017-10-16T08:15:26.844Z,26.80
2017-10-16T08:17:54.364Z,26.90
2017-10-16T08:20:21.883Z,26.50
2017-10-16T08:22:49.384Z,27.40
2017-10-16T08:25:16.917Z,27.10
2017-10-16T08:27:44.425Z,27.20
2017-10-16T08:30:12.006Z,27.70
2017-10-16T08:32:39.530Z,28.30
2017-10-16T08:35:07.063Z,29.10
2017-10-16T08:37:34.586Z,29.10
2017-10-16T08:40:02.102Z,29.80
2017-10-16T08:42:29.625Z,29.60
2017-10-16T08:44:57.124Z,29.80
2017-10-16T08:47:25.435Z,30.20
2017-10-16T08:49:52.973Z,30.10
2017-10-16T08:52:21.273Z,30.60
2017-10-16T08:54:48.801Z,30.60
2017-10-16T08:57:17.068Z,30.40
2017-10-16T08:59:44.592Z,30.40
2017-10-16T09:02:12.127Z,30.50
2017-10-16T09:04:39.688Z,30.70
2017-10-16T09:07:07.210Z,31.60
2017-10-16T09:09:35.514Z,32.10
2017-10-16T09:12:03.388Z,32.10
2017-10-16T09:14:30.911Z,33.00
2017-10-16T09:16:59.210Z,33.20
2017-10-16T09:19:26.713Z,33.20
2017-10-16T09:21:54.232Z,33.40
2017-10-16T09:24:21.741Z,33.20
2017-10-16T09:26:49.294Z,32.60
2017-10-16T09:29:16.797Z,33.70
2017-10-16T09:31:44.317Z,33.90
2017-10-16T09:34:11.854Z,34.10
2017-10-16T09:36:39.365Z,33.70
2017-10-16T09:39:06.900Z,34.40
2017-10-16T09:41:34.422Z,33.40
2017-10-16T09:44:01.936Z,33.00
2017-10-16T09:46:30.196Z,33.60
2017-10-16T09:48:57.774Z,33.60
2017-10-16T09:51:26.040Z,34.70
2017-10-16T09:53:54.304Z,35.90
2017-10-16T09:56:21.844Z,35.80
2017-10-16T09:58:49.356Z,36.10
2017-10-16T10:01:16.927Z,36.30
2017-10-16T10:03:44.433Z,36.50
2017-10-16T10:06:12.148Z,35.20
2017-10-16T10:08:39.683Z,34.60
2017-10-16T10:11:07.203Z,34.70
2017-10-16T10:13:34.724Z,35.00
2017-10-16T10:16:02.230Z,35.70
2017-10-16T10:18:29.760Z,37.00
2017-10-16T10:20:58.024Z,38.10
2017-10-16T10:23:25.563Z,38.00
2017-10-16T10:25:53.084Z,38.00
2017-10-16T10:28:20.627Z,38.50
2017-10-16T10:30:48.140Z,37.80
2017-10-16T10:33:15.687Z,38.20
2017-10-16T10:35:43.220Z,38.10
2017-10-16T10:38:10.728Z,39.20
2017-10-16T10:40:38.248Z,40.30
2017-10-16T10:43:05.771Z,41.20
2017-10-16T10:45:33.296Z,42.10
2017-10-16T10:48:00.796Z,41.90
2017-10-16T10:50:28.384Z,42.60
2017-10-16T10:52:55.903Z,42.00
2017-10-16T10:55:23.438Z,42.50
2017-10-16T10:57:50.952Z,43.50
2017-10-16T11:00:18.476Z,43.40
2017-10-16T11:02:46.758Z,42.70
2017-10-16T11:05:14.538Z,42.70
2017-10-16T11:07:42.190Z,43.70
2017-10-16T11:10:09.690Z,44.40
2017-10-16T11:12:37.208Z,43.60
2017-10-16T11:15:04.727Z,41.90
2017-10-16T11:17:32.270Z,42.80
2017-10-16T11:19:59.781Z,43.70
2017-10-16T11:22:27.311Z,43.50
2017-10-16T11:24:55.579Z,45.20
2017-10-16T11:27:23.130Z,45.10
2017-10-16T11:29:50.763Z,44.30
2017-10-16T11:32:18.291Z,44.60
2017-10-16T11:34:45.835Z,44.70
2017-10-16T11:37:14.120Z,43.80
2017-10-16T11:39:41.659Z,43.80
2017-10-16T11:42:09.977Z,43.10
2017-10-16T11:44:37.505Z,43.00
2017-10-16T11:47:05.776Z,43.80
2017-10-16T11:49:34.193Z,44.40
2017-10-16T11:52:01.700Z,44.50
2017-10-16T11:54:29.208Z,44.10
2017-10-16T11:56:56.732Z,43.50
2017-10-16T11:59:25.000Z,42.30
2017-10-16T12:01:52.516Z,42.30
2017-10-16T12:04:20.020Z,40.00
2017-10-16T12:06:48.325Z,37.60
2017-10-16T12:09:15.841Z,37.50
2017-10-16T12:11:43.377Z,37.60
2017-10-16T12:14:10.871Z,37.30
2017-10-16T12:16:39.160Z,35.30
2017-10-16T12:19:06.747Z,35.30
2017-10-16T12:21:34.247Z,34.20
2017-10-16T12:24:01.771Z,33.90
2017-10-16T12:26:29.298Z,33.80
2017-10-16T12:28:56.821Z,33.50
2017-10-16T12:31:25.102Z,31.90
2017-10-16T12:33:52.646Z,31.90
2017-10-16T12:36:20.168Z,32.10
2017-10-16T12:38:47.719Z,32.30
2017-10-16T12:41:15.258Z,32.20
2017-10-16T12:43:43.524Z,32.30
2017-10-16T12:46:11.833Z,32.40
2017-10-16T12:48:39.366Z,32.40
2017-10-16T12:51:07.707Z,34.80
2017-10-16T12:53:35.214Z,34.70
2017-10-16T12:56:02.803Z,35.50
2017-10-16T12:58:30.308Z,35.40
2017-10-16T13:00:57.812Z,34.30
2017-10-16T13:03:25.452Z,33.90
2017-10-16T13:05:52.977Z,33.50
2017-10-16T13:08:21.264Z,36.50
2017-10-16T13:10:49.532Z,35.60
2017-10-16T13:13:17.066Z,35.50
2017-10-16T13:15:44.577Z,34.60
2017-10-16T13:18:12.112Z,34.00
2017-10-16T13:20:39.636Z,33.60
2017-10-16T13:23:07.136Z,33.10
2017-10-16T13:25:35.433Z,32.40
2017-10-16T13:28:02.964Z,32.30
2017-10-16T13:30:30.503Z,32.10
2017-10-16T13:32:58.022Z,32.20
2017-10-16T13:35:25.694Z,32.00
2017-10-16T13:37:53.215Z,31.70
2017-10-16T13:40:21.517Z,33.60
2017-10-16T13:42:49.088Z,33.60
2017-10-16T13:45:16.613Z,34.90
2017-10-16T13:47:44.916Z,35.90
2017-10-16T13:50:12.439Z,35.90
2017-10-16T13:52:40.728Z,35.20
2017-10-16T13:55:08.996Z,35.20
2017-10-16T13:57:37.295Z,34.30
2017-10-16T14:00:04.815Z,34.20
2017-10-16T14:02:32.332Z,34.40
2017-10-16T14:04:59.842Z,34.30
2017-10-16T14:07:28.146Z,32.20
2017-10-16T14:09:55.661Z,32.10
2017-10-16T14:12:23.215Z,31.50
2017-10-16T14:14:52.216Z,30.00
2017-10-16T14:17:19.832Z,30.00
2017-10-16T14:19:47.379Z,29.90
2017-10-16T14:22:14.906Z,29.90
2017-10-16T14:24:43.196Z,29.30
2017-10-16T14:27:11.468Z,29.20
2017-10-16T14:29:39.751Z,28.90
2017-10-16T14:32:07.279Z,28.80
2017-10-16T14:34:34.810Z,28.50
2017-10-16T14:37:02.347Z,28.40
2017-10-16T14:39:29.889Z,28.40
2017-10-16T14:41:57.465Z,28.80
2017-10-16T14:44:24.982Z,29.10
2017-10-16T14:46:53.276Z,29.10
2017-10-16T14:49:21.571Z,28.80
2017-10-16T14:51:49.122Z,28.80
2017-10-16T14:54:16.642Z,28.70
2017-10-16T14:56:44.254Z,29.00
2017-10-16T14:59:11.764Z,29.90
2017-10-16T15:01:41.000Z,31.00
2017-10-16T15:04:08.531Z,31.00
2017-10-16T15:06:36.834Z,32.10
2017-10-16T15:09:04.350Z,32.10
2017-10-16T15:11:32.672Z,29.80
2017-10-16T15:14:00.202Z,29.80
2017-10-16T15:16:28.472Z,28.60
2017-10-16T15:18:56.007Z,28.60
2017-10-16T15:21:23.551Z,28.00
2017-10-16T15:23:51.085Z,27.50
2017-10-16T15:26:18.598Z,27.40
2017-10-16T15:28:46.116Z,27.30
2017-10-16T15:31:13.639Z,27.40
2017-10-16T15:33:41.936Z,27.30
2017-10-16T15:36:09.444Z,27.30
2017-10-16T15:38:36.960Z,27.40
2017-10-16T15:41:04.517Z,27.40
2017-10-16T15:43:32.042Z,27.30
2017-10-16T15:46:00.352Z,27.00
2017-10-16T15:48:27.857Z,27.00
2017-10-16T15:50:55.475Z,26.80
2017-10-16T15:53:22.995Z,26.40
2017-10-16T15:55:51.307Z,25.80
2017-10-16T15:58:18.831Z,25.70
2017-10-16T16:00:47.110Z,25.20
2017-10-16T16:03:15.396Z,25.00
2017-10-16T16:05:43.663Z,24.70
2017-10-16T16:08:11.968Z,24.40
2017-10-16T16:10:39.486Z,24.40
2017-10-16T16:13:07.013Z,24.10
2017-10-16T16:15:34.521Z,23.80
2017-10-16T16:18:02.828Z,23.20
2017-10-16T16:20:30.351Z,23.10
2017-10-16T16:22:58.638Z,22.50
2017-10-16T16:25:26.156Z,22.40
2017-10-16T16:27:53.678Z,22.20
2017-10-16T16:30:21.238Z,21.90
2017-10-16T16:32:48.748Z,21.70
2017-10-16T16:35:17.063Z,21.20
2017-10-16T16:37:44.582Z,21.20
2017-10-16T16:40:12.904Z,20.80
2017-10-16T16:42:40.467Z,20.80
2017-10-16T16:45:07.987Z,20.70
2017-10-16T16:47:36.406Z,20.70
2017-10-16T16:50:03.909Z,20.70
2017-10-16T16:52:31.477Z,20.70
2017-10-16T16:54:59.744Z,20.50
2017-10-16T16:57:27.287Z,20.50
2017-10-16T16:59:54.815Z,20.40
2017-10-16T17:02:22.344Z,20.30
2017-10-16T17:04:50.634Z,20.00
2017-10-16T17:07:18.173Z,20.00
2017-10-16T17:09:46.459Z,19.70
2017-10-16T17:12:13.999Z,19.70
2017-10-16T17:14:42.288Z,19.30
2017-10-16T17:17:10.560Z,19.10
2017-10-16T17:19:38.911Z,18.80
2017-10-16T17:22:06.421Z,18.80
2017-10-16T17:24:33.944Z,18.70
2017-10-16T17:27:01.474Z,18.50
2017-10-16T17:29:29.017Z,18.40
2017-10-16T17:31:56.543Z,18.40
2017-10-16T17:34:24.063Z,18.30
2017-10-16T17:36:51.592Z,18.20
2017-10-16T17:39:19.122Z,18.20
2017-10-16T17:41:46.673Z,18.10
2017-10-16T17:44:14.944Z,17.90
2017-10-16T17:46:43.257Z,17.80
2017-10-16T17:49:10.768Z,17.80
2017-10-16T17:51:39.063Z,17.60
2017-10-16T17:54:06.576Z,17.60
2017-10-16T17:56:34.119Z,17.50
2017-10-16T17:59:01.646Z,17.40
2017-10-16T18:01:29.173Z,17.20
2017-10-16T18:03:57.706Z,17.10
2017-10-16T18:06:25.236Z,17.10
2017-10-16T18:08:53.530Z,17.10
2017-10-16T18:11:21.031Z,17.10
2017-10-16T18:13:48.712Z,17.10
2017-10-16T18:16:16.289Z,17.10
2017-10-16T18:18:45.263Z,17.10
2017-10-16T18:21:15.155Z,17.10
2017-10-16T18:23:43.454Z,17.10
2017-10-16T18:26:11.124Z,17.10
2017-10-16T18:28:38.645Z,17.10
2017-10-16T18:31:06.963Z,17.60
2017-10-16T18:33:35.295Z,17.60
2017-10-16T18:36:02.869Z,17.60
2017-10-16T18:38:31.465Z,17.80
2017-10-16T18:40:59.085Z,18.10
2017-10-16T18:43:27.374Z,18.50
2017-10-16T18:45:56.514Z,18.50
2017-10-16T18:48:24.455Z,18.40
2017-10-16T18:50:52.137Z,18.30
2017-10-16T18:53:21.097Z,18.20
2017-10-16T18:55:48.697Z,18.00
2017-10-16T18:58:16.559Z,17.90
2017-10-16T19:00:44.523Z,18.80
2017-10-16T19:03:12.864Z,17.70
2017-10-16T19:05:42.389Z,17.70
2017-10-16T19:08:10.783Z,17.70
2017-10-16T19:10:38.738Z,17.70
2017-10-16T19:13:08.095Z,17.60
2017-10-16T19:15:36.419Z,17.50
2017-10-16T19:18:05.003Z,17.60
2017-10-16T19:20:32.565Z,17.60
2017-10-16T19:23:01.407Z,17.50
2017-10-16T19:25:28.985Z,17.50
2017-10-16T19:27:57.493Z,17.50
2017-10-16T19:30:26.588Z,17.50
2017-10-16T19:32:54.230Z,17.50
2017-10-16T19:35:21.740Z,17.40
2017-10-16T19:37:49.526Z,17.40
2017-10-16T19:40:17.078Z,17.20
2017-10-16T19:42:45.377Z,17.10
2017-10-16T19:45:14.178Z,17.10
2017-10-16T19:47:41.959Z,17.00
2017-10-16T19:50:09.485Z,17.00
2017-10-16T19:52:37.846Z,16.70
2017-10-16T19:55:05.455Z,16.70
2017-10-16T19:57:33.067Z,16.70
2017-10-16T20:00:01.354Z,16.50
2017-10-16T20:02:29.669Z,16.50
2017-10-16T20:04:57.220Z,16.50
2017-10-16T20:07:24.891Z,16.40
2017-10-16T20:09:52.431Z,16.30
2017-10-16T20:12:19.940Z,16.20
2017-10-16T20:14:48.281Z,16.00
2017-10-16T20:17:15.788Z,16.00
2017-10-16T20:19:43.316Z,16.00
2017-10-16T20:22:10.836Z,14.90
2017-10-16T20:24:38.344Z,15.90
2017-10-16T20:27:06.753Z,15.80
2017-10-16T20:29:35.042Z,15.70
2017-10-16T20:32:03.350Z,15.60
2017-10-16T20:34:30.857Z,15.70
2017-10-16T20:36:58.381Z,15.60
2017-10-16T20:39:25.893Z,15.60
2017-10-16T20:41:54.199Z,15.70
2017-10-16T20:44:21.717Z,15.60
2017-10-16T20:46:50.034Z,16.00
2017-10-16T20:49:17.543Z,16.00
2017-10-16T20:51:45.153Z,16.20
2017-10-16T20:54:12.675Z,16.30
2017-10-16T20:56:40.943Z,16.20
2017-10-16T20:59:09.282Z,16.10
2017-10-16T21:01:36.799Z,16.10
2017-10-16T21:04:04.338Z,16.10
2017-10-16T21:06:31.859Z,16.00
2017-10-16T21:08:59.402Z,15.90
2017-10-16T21:11:26.918Z,15.80
2017-10-16T21:13:55.217Z,15.70
2017-10-16T21:16:22.720Z,15.60
2017-10-16T21:18:50.237Z,15.60
2017-10-16T21:21:17.775Z,15.50
2017-10-16T21:23:46.059Z,15.40
2017-10-16T21:26:14.348Z,15.40
2017-10-16T21:28:41.921Z,15.30
2017-10-16T21:31:09.444Z,15.30
2017-10-16T21:33:37.733Z,15.10
2017-10-16T21:36:05.312Z,15.10
2017-10-16T21:38:32.816Z,15.10
2017-10-16T21:41:00.347Z,15.10
2017-10-16T21:43:27.857Z,15.10
2017-10-16T21:45:56.131Z,15.00
2017-10-16T21:48:24.430Z,14.90
2017-10-16T21:50:51.950Z,14.90
2017-10-16T21:53:19.482Z,14.90
2017-10-16T21:55:47.007Z,14.80
2017-10-16T21:58:14.528Z,14.70
2017-10-16T22:00:42.049Z,14.70
2017-10-16T22:03:09.594Z,14.70
2017-10-16T22:05:37.120Z,14.70
2017-10-16T22:08:05.395Z,14.60
2017-10-16T22:10:33.690Z,14.60
2017-10-16T22:13:01.205Z,14.60
2017-10-16T22:15:28.733Z,14.60
2017-10-16T22:17:56.250Z,14.60
2017-10-16T22:20:24.552Z,14.50
2017-10-16T22:22:52.059Z,14.50
2017-10-16T22:25:20.361Z,14.50
2017-10-16T22:27:48.677Z,14.50
2017-10-16T22:30:16.189Z,14.50
2017-10-16T22:32:44.493Z,14.40
2017-10-16T22:35:12.011Z,14.40
2017-10-16T22:37:39.532Z,14.40
2017-10-16T22:40:07.055Z,14.40
2017-10-16T22:42:34.581Z,14.30
2017-10-16T22:45:02.091Z,14.20
2017-10-16T22:47:34.339Z,14.10
2017-10-16T22:50:01.868Z,14.00
2017-10-16T22:52:29.375Z,13.90
2017-10-16T22:54:56.914Z,13.90
2017-10-16T22:57:24.434Z,13.80
2017-10-16T22:59:51.968Z,13.90
2017-10-16T23:02:19.479Z,14.00
2017-10-16T23:04:47.764Z,14.60
2017-10-16T23:07:16.064Z,14.70
2017-10-16T23:09:43.610Z,14.70
2017-10-16T23:12:11.130Z,15.00
2017-10-16T23:14:38.632Z,15.10
2017-10-16T23:17:06.179Z,14.90
2017-10-16T23:19:33.688Z,14.80
2017-10-16T23:22:01.209Z,14.60
2017-10-16T23:24:28.731Z,14.30
2017-10-16T23:26:57.043Z,14.00
2017-10-16T23:29:24.544Z,13.90
2017-10-16T23:31:52.867Z,13.70
2017-10-16T23:34:20.386Z,13.70
2017-10-16T23:36:47.907Z,13.70
2017-10-16T23:39:15.429Z,13.70
2017-10-16T23:41:43.719Z,13.50
2017-10-16T23:44:11.240Z,13.50
2017-10-16T23:46:38.754Z,13.40
2017-10-16T23:49:06.311Z,13.20
2017-10-16T23:51:33.815Z,13.20
2017-10-16T23:54:02.879Z,13.50
2017-10-16T23:56:30.526Z,13.40
2017-10-16T23:58:58.047Z,13.60
